createdAt,value
2022-09-23T00:01:19.147Z,18.60
2022-09-23T00:03:46.568Z,18.60
2022-09-23T00:06:16.201Z,18.50
2022-09-23T00:08:43.946Z,18.50
2022-09-23T00:11:17.100Z,18.50
2022-09-23T00:13:45.696Z,18.50
2022-09-23T00:16:20.093Z,18.40
2022-09-23T00:18:46.960Z,18.40
2022-09-23T00:21:14.762Z,18.40
2022-09-23T00:23:43.207Z,18.40
2022-09-23T00:26:13.036Z,18.30
2022-09-23T00:28:40.767Z,18.30
2022-09-23T00:31:15.988Z,18.30
2022-09-23T00:33:43.440Z,18.30
2022-09-23T00:36:15.025Z,18.20
2022-09-23T00:38:42.896Z,18.20
2022-09-23T00:41:10.356Z,18.20
2022-09-23T00:43:44.762Z,18.20
2022-09-23T00:46:19.856Z,18.20
2022-09-23T00:48:51.120Z,18.10
2022-09-23T00:51:23.311Z,18.10
2022-09-23T00:53:51.526Z,18.10
2022-09-23T00:56:20.837Z,18.10
2022-09-23T00:58:49.118Z,18.10
2022-09-23T01:01:16.370Z,18.10
2022-09-23T01:03:45.741Z,18.10
2022-09-23T01:06:13.423Z,18.00
2022-09-23T01:08:42.406Z,18.10
2022-09-23T01:11:22.747Z,18.10
2022-09-23T01:14:07.548Z,18.20
2022-09-23T01:16:41.173Z,18.20
2022-09-23T01:19:28.904Z,18.20
2022-09-23T01:22:17.523Z,18.20
2022-09-23T01:24:57.977Z,18.20
2022-09-23T01:28:01.287Z,18.20
2022-09-23T01:30:48.718Z,18.20
2022-09-23T01:34:06.190Z,18.20
2022-09-23T01:36:55.349Z,18.20
2022-09-23T01:39:40.225Z,18.20
2022-09-23T01:42:26.393Z,18.20
2022-09-23T01:45:21.930Z,18.20
2022-09-23T01:47:55.394Z,18.20
2022-09-23T01:50:47.457Z,18.20
2022-09-23T01:53:43.503Z,18.20
2022-09-23T01:56:20.714Z,18.10
2022-09-23T01:59:01.537Z,18.10
2022-09-23T02:01:53.569Z,18.10
2022-09-23T02:04:26.681Z,18.10
2022-09-23T02:07:01.022Z,18.10
2022-09-23T02:09:38.118Z,18.20
2022-09-23T02:12:12.651Z,18.20
2022-09-23T02:15:09.855Z,18.20
2022-09-23T02:17:51.998Z,18.20
2022-09-23T02:20:34.633Z,18.30
2022-09-23T02:23:16.891Z,18.30
2022-09-23T02:26:21.161Z,18.30
2022-09-23T02:28:55.216Z,18.20
2022-09-23T02:31:51.091Z,18.20
2022-09-23T02:34:29.881Z,18.10
2022-09-23T02:37:06.598Z,18.10
2022-09-23T02:40:01.529Z,18.10
2022-09-23T02:42:44.284Z,18.10
2022-09-23T02:45:11.066Z,18.00
2022-09-23T02:47:42.030Z,18.00
2022-09-23T02:50:09.503Z,18.00
2022-09-23T02:52:38.743Z,18.00
2022-09-23T02:55:09.049Z,18.00
2022-09-23T02:57:35.908Z,18.00
2022-09-23T03:00:03.055Z,17.90
2022-09-23T03:03:05.311Z,17.90
2022-09-23T03:05:37.659Z,17.90
2022-09-23T03:08:38.992Z,17.80
2022-09-23T03:11:08.548Z,17.80
2022-09-23T03:13:56.058Z,17.70
2022-09-23T03:16:28.225Z,17.70
2022-09-23T03:19:19.327Z,17.70
2022-09-23T03:21:51.784Z,17.70
2022-09-23T03:24:21.718Z,17.70
2022-09-23T03:26:49.894Z,17.70
2022-09-23T03:29:19.314Z,17.70
2022-09-23T03:31:46.637Z,17.60
2022-09-23T03:34:24.371Z,17.60
2022-09-23T03:37:00.701Z,17.60
2022-09-23T03:39:41.165Z,17.50
2022-09-23T03:42:24.951Z,17.50
2022-09-23T03:44:54.920Z,17.50
2022-09-23T03:47:22.234Z,17.40
2022-09-23T03:49:50.301Z,17.40
2022-09-23T03:52:19.007Z,17.40
2022-09-23T03:54:45.869Z,17.40
2022-09-23T03:57:13.344Z,17.40
2022-09-23T03:59:40.877Z,17.40
2022-09-23T04:02:08.217Z,17.50
2022-09-23T04:04:40.193Z,17.50
2022-09-23T04:07:06.985Z,17.50
2022-09-23T04:09:33.742Z,17.50
2022-09-23T04:12:00.860Z,17.50
2022-09-23T04:14:27.764Z,17.50
2022-09-23T04:16:54.579Z,17.50
2022-09-23T04:19:21.441Z,17.50
2022-09-23T04:21:48.260Z,17.50
2022-09-23T04:24:16.707Z,17.60
2022-09-23T04:26:44.100Z,17.60
2022-09-23T04:29:11.973Z,17.60
2022-09-23T04:31:39.151Z,17.60
2022-09-23T04:34:06.008Z,17.60
2022-09-23T04:36:35.084Z,17.50
2022-09-23T04:39:02.096Z,17.60
2022-09-23T04:41:29.741Z,17.60
2022-09-23T04:43:57.537Z,17.60
2022-09-23T04:46:24.731Z,17.70
2022-09-23T04:48:51.695Z,17.70
2022-09-23T04:51:21.202Z,17.70
2022-09-23T04:53:50.331Z,17.70
2022-09-23T04:56:23.117Z,17.70
2022-09-23T04:58:50.572Z,17.70
2022-09-23T05:01:26.903Z,17.70
2022-09-23T05:04:01.895Z,17.70
2022-09-23T05:06:29.844Z,17.70
2022-09-23T05:08:58.043Z,17.60
2022-09-23T05:11:26.229Z,17.60
2022-09-23T05:13:54.576Z,17.60
2022-09-23T05:16:23.377Z,17.60
2022-09-23T05:18:51.648Z,17.60
2022-09-23T05:21:20.972Z,17.60
2022-09-23T05:23:49.958Z,17.60
2022-09-23T05:26:19.971Z,17.60
2022-09-23T05:28:46.711Z,17.60
2022-09-23T05:31:19.939Z,17.60
2022-09-23T05:34:06.170Z,17.60
2022-09-23T05:36:38.377Z,17.60
2022-09-23T05:39:07.635Z,17.60
2022-09-23T05:41:34.600Z,17.60
2022-09-23T05:44:01.809Z,17.60
2022-09-23T05:46:30.325Z,17.60
2022-09-23T05:49:02.233Z,17.60
2022-09-23T05:51:31.382Z,17.50
2022-09-23T05:53:59.596Z,17.50
2022-09-23T05:56:28.042Z,17.50
2022-09-23T05:58:57.202Z,17.50
2022-09-23T06:01:32.087Z,17.50
2022-09-23T06:04:00.190Z,17.60
2022-09-23T06:06:41.550Z,17.60
2022-09-23T06:09:11.738Z,17.70
2022-09-23T06:11:38.564Z,17.70
2022-09-23T06:14:07.855Z,17.70
2022-09-23T06:16:35.665Z,17.70
2022-09-23T06:19:05.920Z,17.70
2022-09-23T06:21:37.930Z,17.80
2022-09-23T06:24:06.521Z,17.80
2022-09-23T06:26:35.144Z,17.80
2022-09-23T06:29:04.266Z,17.80
2022-09-23T06:31:31.123Z,17.90
2022-09-23T06:34:08.505Z,17.90
2022-09-23T06:36:43.978Z,18.00
2022-09-23T06:39:11.926Z,18.00
2022-09-23T06:41:39.341Z,18.10
2022-09-23T06:44:06.362Z,18.10
2022-09-23T06:46:33.559Z,18.10
2022-09-23T06:49:01.073Z,18.10
2022-09-23T06:51:28.005Z,18.20
2022-09-23T06:53:55.979Z,18.10
2022-09-23T06:56:23.760Z,18.20
2022-09-23T06:58:52.514Z,18.30
2022-09-23T07:01:19.913Z,18.30
2022-09-23T07:03:50.260Z,18.30
2022-09-23T07:06:17.525Z,18.40
2022-09-23T07:08:47.150Z,18.40
2022-09-23T07:11:15.388Z,18.50
2022-09-23T07:13:42.732Z,18.50
2022-09-23T07:16:10.922Z,18.60
2022-09-23T07:18:38.331Z,18.60
2022-09-23T07:21:15.126Z,18.60
2022-09-23T07:23:43.368Z,18.70
2022-09-23T07:26:10.568Z,18.70
2022-09-23T07:28:38.381Z,18.80
2022-09-23T07:31:11.277Z,18.80
2022-09-23T07:33:40.080Z,18.90
2022-09-23T07:36:18.747Z,18.90
2022-09-23T07:38:47.376Z,19.00
2022-09-23T07:41:16.962Z,19.00
2022-09-23T07:43:44.724Z,19.00
2022-09-23T07:46:16.861Z,19.00
2022-09-23T07:48:45.773Z,19.10
2022-09-23T07:51:14.371Z,19.10
2022-09-23T07:53:41.147Z,19.20
2022-09-23T07:56:08.034Z,19.20
2022-09-23T07:58:35.181Z,19.20
2022-09-23T08:01:10.300Z,19.20
2022-09-23T08:03:37.388Z,19.30
2022-09-23T08:06:13.915Z,19.30
2022-09-23T08:08:44.887Z,19.30
2022-09-23T08:11:14.218Z,19.40
2022-09-23T08:13:42.085Z,19.40
2022-09-23T08:16:09.584Z,19.50
2022-09-23T08:18:36.377Z,19.40
2022-09-23T08:21:03.793Z,19.50
2022-09-23T08:23:33.632Z,19.50
2022-09-23T08:26:08.942Z,19.50
2022-09-23T08:28:39.444Z,19.60
2022-09-23T08:31:06.341Z,19.70
2022-09-23T08:33:33.115Z,19.70
2022-09-23T08:36:03.733Z,19.80
2022-09-23T08:38:30.706Z,19.90
2022-09-23T08:41:29.355Z,20.00
2022-09-23T08:44:17.129Z,20.00
2022-09-23T08:46:52.689Z,20.00
2022-09-23T08:49:41.739Z,20.00
2022-09-23T08:52:39.479Z,20.10
2022-09-23T08:55:11.740Z,20.20
2022-09-23T08:58:24.066Z,20.30
2022-09-23T09:01:00.297Z,20.40
2022-09-23T09:03:35.461Z,20.50
2022-09-23T09:06:03.497Z,20.50
2022-09-23T09:08:37.410Z,20.60
2022-09-23T09:11:06.137Z,20.70
2022-09-23T09:13:44.934Z,20.80
2022-09-23T09:16:59.643Z,20.90
2022-09-23T09:19:57.698Z,20.90
2022-09-23T09:23:00.598Z,21.00
2022-09-23T09:25:38.017Z,21.00
2022-09-23T09:28:35.799Z,21.00
2022-09-23T09:31:40.528Z,21.10
2022-09-23T09:34:25.497Z,21.20
2022-09-23T09:36:52.219Z,21.20
2022-09-23T09:39:21.854Z,21.30
2022-09-23T09:41:53.856Z,21.40
2022-09-23T09:44:39.147Z,21.50
2022-09-23T09:47:33.692Z,21.60
2022-09-23T09:50:09.987Z,21.60
2022-09-23T09:52:43.252Z,21.70
2022-09-23T09:55:13.354Z,21.70
2022-09-23T09:57:50.141Z,21.70
2022-09-23T10:00:38.169Z,21.80
2022-09-23T10:03:14.012Z,21.80
2022-09-23T10:05:43.855Z,21.90
2022-09-23T10:08:33.555Z,22.00
2022-09-23T10:11:03.416Z,22.10
2022-09-23T10:13:30.815Z,22.10
2022-09-23T10:15:59.958Z,22.10
2022-09-23T10:18:29.030Z,22.20
2022-09-23T10:21:24.195Z,22.20
2022-09-23T10:24:01.545Z,22.30
2022-09-23T10:26:42.904Z,22.40
2022-09-23T10:29:37.089Z,22.50
2022-09-23T10:32:22.445Z,22.60
2022-09-23T10:34:53.983Z,22.60
2022-09-23T10:37:50.099Z,22.70
2022-09-23T10:40:38.792Z,22.60
2022-09-23T10:43:43.143Z,22.70
2022-09-23T10:46:41.141Z,22.80
2022-09-23T10:49:45.817Z,22.80
2022-09-23T10:52:18.461Z,22.90
2022-09-23T10:55:10.047Z,23.00
2022-09-23T10:58:04.307Z,23.10
2022-09-23T11:00:36.299Z,23.20
2022-09-23T11:03:21.653Z,23.30
2022-09-23T11:06:34.118Z,23.40
2022-09-23T11:09:07.034Z,23.50
2022-09-23T11:11:55.427Z,23.60
2022-09-23T11:14:51.539Z,23.70
2022-09-23T11:17:42.286Z,23.70
2022-09-23T11:20:34.289Z,23.70
2022-09-23T11:23:10.283Z,23.70
2022-09-23T11:25:39.879Z,23.70
2022-09-23T11:28:18.657Z,23.80
2022-09-23T11:31:07.183Z,23.80
2022-09-23T11:33:52.886Z,23.90
2022-09-23T11:36:36.572Z,23.90
2022-09-23T11:39:15.107Z,23.90
2022-09-23T11:41:44.056Z,23.90
2022-09-23T11:44:45.173Z,23.90
2022-09-23T11:47:26.585Z,23.80
2022-09-23T11:50:05.347Z,23.80
2022-09-23T11:52:36.071Z,23.80
2022-09-23T11:55:19.396Z,23.80
2022-09-23T11:57:50.632Z,23.90
2022-09-23T12:00:23.039Z,23.90
2022-09-23T12:03:09.369Z,24.00
2022-09-23T12:05:48.172Z,24.00
2022-09-23T12:08:35.431Z,24.00
2022-09-23T12:11:34.183Z,24.10
2022-09-23T12:14:08.583Z,24.10
2022-09-23T12:16:49.069Z,24.20
2022-09-23T12:19:38.602Z,24.20
2022-09-23T12:22:29.626Z,24.20
2022-09-23T12:25:18.074Z,24.20
2022-09-23T12:27:49.777Z,24.30
2022-09-23T12:30:26.751Z,24.30
2022-09-23T12:33:07.462Z,24.30
2022-09-23T12:35:41.318Z,24.20
2022-09-23T12:38:20.940Z,24.30
2022-09-23T12:40:48.509Z,24.30
2022-09-23T12:43:18.137Z,24.40
2022-09-23T12:45:45.565Z,24.40
2022-09-23T12:48:18.550Z,24.30
2022-09-23T12:51:07.783Z,24.30
2022-09-23T12:53:34.714Z,24.30
2022-09-23T12:56:23.087Z,24.30
2022-09-23T12:58:50.670Z,24.30
2022-09-23T13:01:21.033Z,24.20
2022-09-23T13:04:07.956Z,24.20
2022-09-23T13:06:59.895Z,24.20
2022-09-23T13:09:30.955Z,24.20
2022-09-23T13:12:03.773Z,24.30
2022-09-23T13:14:32.806Z,24.30
2022-09-23T13:17:00.055Z,24.40
2022-09-23T13:19:26.810Z,24.40
2022-09-23T13:21:53.502Z,24.40
2022-09-23T13:24:23.408Z,24.60
2022-09-23T13:26:53.375Z,24.60
2022-09-23T13:29:49.109Z,24.70
2022-09-23T13:32:20.830Z,24.70
2022-09-23T13:35:06.027Z,24.60
2022-09-23T13:37:47.681Z,24.70
2022-09-23T13:40:29.227Z,24.60
2022-09-23T13:43:12.583Z,24.50
2022-09-23T13:45:43.253Z,24.60
2022-09-23T13:48:15.401Z,24.70
2022-09-23T13:50:50.742Z,24.70
2022-09-23T13:53:30.075Z,24.70
2022-09-23T13:56:14.228Z,24.80
2022-09-23T13:58:41.531Z,24.80
2022-09-23T14:01:10.287Z,24.80
2022-09-23T14:03:38.906Z,24.80
2022-09-23T14:06:10.920Z,24.80
2022-09-23T14:08:44.440Z,24.80
2022-09-23T14:11:35.475Z,24.80
2022-09-23T14:14:07.590Z,24.80
2022-09-23T14:16:39.627Z,24.80
2022-09-23T14:19:09.721Z,24.80
2022-09-23T14:21:40.317Z,24.80
2022-09-23T14:24:16.241Z,24.80
2022-09-23T14:26:46.125Z,24.80
2022-09-23T14:29:20.186Z,24.80
2022-09-23T14:31:59.528Z,24.80
2022-09-23T14:34:44.637Z,24.80
2022-09-23T14:37:51.306Z,24.80
2022-09-23T14:40:23.418Z,24.70
2022-09-23T14:42:57.035Z,24.70
2022-09-23T14:45:30.403Z,24.60
2022-09-23T14:47:59.983Z,24.60
2022-09-23T14:50:47.398Z,24.60
2022-09-23T14:53:20.096Z,24.60
2022-09-23T14:55:48.626Z,24.60
2022-09-23T14:58:18.122Z,24.50
2022-09-23T15:00:56.292Z,24.50
2022-09-23T15:03:23.386Z,24.50
2022-09-23T15:05:57.810Z,24.50
2022-09-23T15:08:27.530Z,24.50
2022-09-23T15:10:54.927Z,24.60
2022-09-23T15:13:27.421Z,24.60
2022-09-23T15:15:55.380Z,24.60
2022-09-23T15:18:28.819Z,24.50
2022-09-23T15:21:00.739Z,24.50
2022-09-23T15:23:36.599Z,24.50
2022-09-23T15:26:07.252Z,24.50
2022-09-23T15:28:34.188Z,24.40
2022-09-23T15:31:01.128Z,24.40
2022-09-23T15:33:28.516Z,24.40
2022-09-23T15:35:56.133Z,24.40
2022-09-23T15:38:23.270Z,24.40
2022-09-23T15:40:50.265Z,24.40
2022-09-23T15:43:23.240Z,24.30
2022-09-23T15:45:50.426Z,24.30
2022-09-23T15:48:21.247Z,24.30
2022-09-23T15:50:49.508Z,24.30
2022-09-23T15:53:23.781Z,24.30
2022-09-23T15:55:51.650Z,24.30
2022-09-23T15:58:20.419Z,24.30
2022-09-23T16:00:56.022Z,24.30
2022-09-23T16:03:30.651Z,24.30
2022-09-23T16:06:01.253Z,24.30
2022-09-23T16:08:29.210Z,24.30
2022-09-23T16:10:56.640Z,24.30
2022-09-23T16:13:23.526Z,24.20
2022-09-23T16:15:50.453Z,24.20
2022-09-23T16:18:17.257Z,24.20
2022-09-23T16:20:45.648Z,24.20
2022-09-23T16:23:34.097Z,24.20
2022-09-23T16:26:21.847Z,24.20
2022-09-23T16:28:50.284Z,24.20
2022-09-23T16:31:17.749Z,24.10
2022-09-23T16:33:45.972Z,24.10
2022-09-23T16:36:26.948Z,24.10
2022-09-23T16:38:57.407Z,24.10
2022-09-23T16:41:29.493Z,24.10
2022-09-23T16:43:56.369Z,24.10
2022-09-23T16:46:27.071Z,24.00
2022-09-23T16:48:55.605Z,24.00
2022-09-23T16:51:26.426Z,24.00
2022-09-23T16:53:55.198Z,24.00
2022-09-23T16:56:28.183Z,24.00
2022-09-23T16:58:56.443Z,24.00
2022-09-23T17:01:46.723Z,23.80
2022-09-23T17:04:15.768Z,23.80
2022-09-23T17:06:51.091Z,23.60
2022-09-23T17:09:26.739Z,23.60
2022-09-23T17:12:13.778Z,23.60
2022-09-23T17:14:40.504Z,23.70
2022-09-23T17:17:07.311Z,23.60
2022-09-23T17:19:34.743Z,23.60
2022-09-23T17:22:01.495Z,23.60
2022-09-23T17:24:28.269Z,23.50
2022-09-23T17:26:55.065Z,23.50
2022-09-23T17:29:21.781Z,23.50
2022-09-23T17:31:48.578Z,23.50
2022-09-23T17:34:16.382Z,23.40
2022-09-23T17:36:43.158Z,23.50
2022-09-23T17:39:09.953Z,23.40
2022-09-23T17:41:39.156Z,23.40
2022-09-23T17:44:05.969Z,23.40
2022-09-23T17:46:32.713Z,23.40
2022-09-23T17:48:59.523Z,23.40
2022-09-23T17:51:26.652Z,23.30
2022-09-23T17:53:53.505Z,23.30
2022-09-23T17:56:26.697Z,23.30
2022-09-23T17:58:54.186Z,23.30
2022-09-23T18:01:23.568Z,23.30
2022-09-23T18:03:55.163Z,23.20
2022-09-23T18:06:25.123Z,23.20
2022-09-23T18:08:52.255Z,23.10
2022-09-23T18:11:21.985Z,23.10
2022-09-23T18:13:59.997Z,23.10
2022-09-23T18:16:30.464Z,23.10
2022-09-23T18:18:59.631Z,23.00
2022-09-23T18:21:28.819Z,23.00
2022-09-23T18:24:06.495Z,23.00
2022-09-23T18:26:43.060Z,22.90
2022-09-23T18:29:10.922Z,22.90
2022-09-23T18:31:39.052Z,22.90
2022-09-23T18:34:10.050Z,22.90
2022-09-23T18:36:37.327Z,22.90
2022-09-23T18:39:05.066Z,22.80
2022-09-23T18:41:31.913Z,22.80
2022-09-23T18:43:58.778Z,22.70
2022-09-23T18:46:29.565Z,22.70
2022-09-23T18:49:14.932Z,22.80
2022-09-23T18:52:02.167Z,22.70
2022-09-23T18:54:29.522Z,22.60
2022-09-23T18:56:57.521Z,22.70
2022-09-23T18:59:28.014Z,22.70
2022-09-23T19:01:55.711Z,22.60
2022-09-23T19:04:24.344Z,22.60
2022-09-23T19:06:51.477Z,22.60
2022-09-23T19:09:18.337Z,22.60
2022-09-23T19:11:45.608Z,22.60
2022-09-23T19:14:13.117Z,22.60
2022-09-23T19:16:40.928Z,22.60
2022-09-23T19:19:08.197Z,22.60
2022-09-23T19:21:35.663Z,22.50
2022-09-23T19:24:05.690Z,22.50
2022-09-23T19:26:38.222Z,22.50
2022-09-23T19:29:08.337Z,22.50
2022-09-23T19:31:40.192Z,22.50
2022-09-23T19:34:12.736Z,22.50
2022-09-23T19:36:42.431Z,22.50
2022-09-23T19:39:16.406Z,22.50
2022-09-23T19:41:43.526Z,22.50
2022-09-23T19:44:10.353Z,22.40
2022-09-23T19:46:39.073Z,22.40
2022-09-23T19:49:07.242Z,22.40
2022-09-23T19:51:34.994Z,22.40
2022-09-23T19:54:03.444Z,22.40
2022-09-23T19:56:31.912Z,22.40
2022-09-23T19:58:59.548Z,22.30
2022-09-23T20:01:27.941Z,22.30
2022-09-23T20:03:55.067Z,22.30
2022-09-23T20:06:22.396Z,22.30
2022-09-23T20:08:50.089Z,22.30
2022-09-23T20:11:21.773Z,22.20
2022-09-23T20:13:59.378Z,22.20
2022-09-23T20:16:27.945Z,22.20
2022-09-23T20:18:56.517Z,22.20
2022-09-23T20:21:23.483Z,22.20
2022-09-23T20:23:50.221Z,22.20
2022-09-23T20:26:35.399Z,22.20
2022-09-23T20:29:02.372Z,22.20
2022-09-23T20:31:29.398Z,22.20
2022-09-23T20:33:58.572Z,22.10
2022-09-23T20:36:29.505Z,22.10
2022-09-23T20:38:59.658Z,22.10
2022-09-23T20:41:28.146Z,22.10
2022-09-23T20:43:58.037Z,22.10
2022-09-23T20:46:25.179Z,22.10
2022-09-23T20:48:52.139Z,22.10
2022-09-23T20:51:18.935Z,22.00
2022-09-23T20:53:50.762Z,22.00
2022-09-23T20:56:18.843Z,22.00
2022-09-23T20:58:47.480Z,22.00
2022-09-23T21:01:14.984Z,22.00
2022-09-23T21:03:44.604Z,21.90
2022-09-23T21:06:13.981Z,21.90
2022-09-23T21:08:41.743Z,22.00
2022-09-23T21:11:11.810Z,21.90
2022-09-23T21:13:38.704Z,22.00
2022-09-23T21:16:11.307Z,22.00
2022-09-23T21:18:38.767Z,22.00
2022-09-23T21:21:06.650Z,22.00
2022-09-23T21:23:35.450Z,22.00
2022-09-23T21:26:07.143Z,22.00
2022-09-23T21:28:39.844Z,22.00
2022-09-23T21:31:09.317Z,22.00
2022-09-23T21:33:39.204Z,22.00
2022-09-23T21:36:07.367Z,21.90
2022-09-23T21:38:35.939Z,21.90
2022-09-23T21:41:05.249Z,21.90
2022-09-23T21:43:34.526Z,21.90
2022-09-23T21:46:03.332Z,21.90
2022-09-23T21:48:32.104Z,21.80
2022-09-23T21:51:04.922Z,21.80
2022-09-23T21:53:33.115Z,21.80
2022-09-23T21:56:08.466Z,21.80
2022-09-23T21:58:36.956Z,21.80
2022-09-23T22:01:09.184Z,21.70
2022-09-23T22:03:36.447Z,21.70
2022-09-23T22:06:12.943Z,21.70
2022-09-23T22:08:42.454Z,21.70
2022-09-23T22:11:30.582Z,21.60
2022-09-23T22:13:58.404Z,21.60
2022-09-23T22:16:26.192Z,21.60
2022-09-23T22:18:57.221Z,21.60
2022-09-23T22:21:26.700Z,21.60
2022-09-23T22:23:54.756Z,21.60
2022-09-23T22:26:21.504Z,21.60
2022-09-23T22:29:07.020Z,21.60
2022-09-23T22:31:52.635Z,21.60
2022-09-23T22:34:47.541Z,21.60
2022-09-23T22:37:07.040Z,21.50
2022-09-23T22:39:33.770Z,21.50
2022-09-23T22:42:00.619Z,21.50
2022-09-23T22:44:29.391Z,21.50
2022-09-23T22:47:00.159Z,21.50
2022-09-23T22:49:27.095Z,21.50
2022-09-23T22:51:53.923Z,21.50
2022-09-23T22:54:24.060Z,21.50
2022-09-23T22:56:50.849Z,21.40
2022-09-23T22:59:17.567Z,21.40
2022-09-23T23:01:44.647Z,21.40
2022-09-23T23:04:13.036Z,21.40
2022-09-23T23:06:39.885Z,21.40
2022-09-23T23:09:09.543Z,21.40
2022-09-23T23:11:38.029Z,21.40
2022-09-23T23:14:04.970Z,21.40
2022-09-23T23:16:35.080Z,21.40
2022-09-23T23:19:04.445Z,21.40
2022-09-23T23:21:31.509Z,21.40
2022-09-23T23:23:58.617Z,21.40
2022-09-23T23:26:30.036Z,21.40
2022-09-23T23:28:57.427Z,21.50
2022-09-23T23:31:26.705Z,21.40
2022-09-23T23:33:54.114Z,21.40
2022-09-23T23:36:23.057Z,21.40
2022-09-23T23:38:51.730Z,21.40
2022-09-23T23:41:22.981Z,21.50
2022-09-23T23:44:00.280Z,21.50
2022-09-23T23:46:29.757Z,21.50
2022-09-23T23:48:57.557Z,21.50
2022-09-23T23:51:27.926Z,21.50
2022-09-23T23:53:55.079Z,21.40
2022-09-23T23:56:24.820Z,21.40
2022-09-23T23:58:55.980Z,21.40
